createdAt,value
2019-05-18T00:03:18.034Z,11.73
2019-05-18T00:08:20.990Z,11.65
2019-05-18T00:13:23.987Z,11.87
2019-05-18T00:18:26.491Z,11.91
2019-05-18T00:23:29.381Z,11.80
2019-05-18T00:28:32.662Z,11.96
2019-05-18T00:33:35.662Z,11.98
2019-05-18T00:38:38.568Z,11.95
2019-05-18T00:43:41.919Z,11.94
2019-05-18T00:48:44.825Z,11.83
2019-05-18T00:53:47.733Z,11.88
2019-05-18T00:58:51.192Z,11.84
2019-05-18T01:03:54.818Z,11.81
2019-05-18T01:08:57.808Z,11.93
2019-05-18T01:14:00.661Z,11.82
2019-05-18T01:19:03.871Z,11.77
2019-05-18T01:24:07.076Z,11.87
2019-05-18T01:29:09.569Z,11.99
2019-05-18T01:34:12.836Z,11.86
2019-05-18T01:39:15.696Z,11.98
2019-05-18T01:44:18.903Z,11.98
2019-05-18T01:49:22.003Z,11.85
2019-05-18T01:54:25.013Z,11.81
2019-05-18T01:59:28.647Z,11.80
2019-05-18T02:04:31.676Z,12.00
2019-05-18T02:09:34.596Z,11.93
2019-05-18T02:14:37.116Z,11.85
2019-05-18T02:19:40.265Z,11.99
2019-05-18T02:24:43.631Z,12.09
2019-05-18T02:29:47.784Z,11.99
2019-05-18T02:34:51.299Z,11.93
2019-05-18T02:39:56.333Z,12.00
2019-05-18T02:44:59.309Z,11.94
2019-05-18T02:50:02.370Z,12.05
2019-05-18T02:55:06.481Z,11.99
2019-05-18T03:00:10.748Z,11.99
2019-05-18T03:05:14.434Z,12.00
2019-05-18T03:10:19.267Z,12.10
2019-05-18T03:15:22.849Z,12.12
2019-05-18T03:20:26.109Z,12.14
2019-05-18T03:25:29.623Z,12.17
2019-05-18T03:30:32.834Z,12.03
2019-05-18T03:35:36.058Z,12.08
2019-05-18T03:40:39.690Z,12.08
2019-05-18T03:45:42.242Z,12.07
2019-05-18T03:50:45.464Z,12.23
2019-05-18T03:55:47.963Z,12.29
2019-05-18T04:00:51.155Z,12.30
2019-05-18T04:05:56.665Z,12.41
2019-05-18T04:10:59.869Z,12.43
2019-05-18T04:16:02.885Z,12.39
2019-05-18T04:21:07.921Z,12.31
2019-05-18T04:26:11.092Z,12.36
2019-05-18T04:31:14.623Z,12.38
2019-05-18T04:36:17.194Z,12.26
2019-05-18T04:41:20.056Z,12.48
2019-05-18T04:46:22.900Z,12.33
2019-05-18T04:51:26.167Z,12.27
2019-05-18T04:56:29.380Z,12.36
2019-05-18T05:01:32.601Z,12.51
2019-05-18T05:06:35.537Z,12.59
2019-05-18T05:11:38.683Z,12.50
2019-05-18T05:16:41.539Z,12.60
2019-05-18T05:21:44.958Z,12.82
2019-05-18T05:26:48.234Z,13.06
2019-05-18T05:31:51.091Z,13.36
2019-05-18T05:36:53.838Z,13.34
2019-05-18T05:41:57.006Z,13.56
2019-05-18T05:47:00.342Z,13.69
2019-05-18T05:52:03.886Z,13.57
2019-05-18T05:57:07.367Z,13.42
2019-05-18T06:02:10.499Z,13.50
2019-05-18T06:07:13.709Z,13.56
2019-05-18T06:12:16.594Z,13.78
2019-05-18T06:17:21.060Z,13.57
2019-05-18T06:22:25.452Z,13.38
2019-05-18T06:27:28.451Z,13.34
2019-05-18T06:32:32.379Z,13.34
2019-05-18T06:37:35.209Z,13.47
2019-05-18T06:42:38.513Z,13.57
2019-05-18T06:47:41.728Z,13.94
2019-05-18T06:52:45.421Z,14.11
2019-05-18T06:57:49.898Z,14.02
2019-05-18T07:02:52.997Z,14.34
2019-05-18T07:07:57.646Z,14.53
2019-05-18T07:13:00.510Z,15.05
2019-05-18T07:18:03.507Z,15.24
2019-05-18T07:23:06.762Z,15.09
2019-05-18T07:28:09.912Z,15.33
2019-05-18T07:33:13.113Z,15.50
2019-05-18T07:38:16.294Z,15.50
2019-05-18T07:43:18.819Z,15.48
2019-05-18T07:48:22.380Z,15.86
2019-05-18T07:53:25.911Z,15.57
2019-05-18T07:58:28.763Z,15.76
2019-05-18T08:03:31.638Z,16.19
2019-05-18T08:08:34.796Z,16.09
2019-05-18T08:13:37.980Z,16.64
2019-05-18T08:18:41.461Z,16.68
2019-05-18T08:23:44.659Z,16.75
2019-05-18T08:28:47.136Z,16.71
2019-05-18T08:33:50.053Z,16.88
2019-05-18T08:38:52.957Z,16.85
2019-05-18T08:43:56.560Z,17.07
2019-05-18T08:48:59.801Z,17.10
2019-05-18T08:54:02.953Z,17.14
2019-05-18T08:59:05.917Z,17.49
2019-05-18T09:04:08.535Z,17.78
2019-05-18T09:09:11.461Z,17.65
2019-05-18T09:14:14.401Z,17.67
2019-05-18T09:19:17.611Z,18.13
2019-05-18T09:24:20.133Z,18.12
2019-05-18T09:29:23.512Z,18.14
2019-05-18T09:34:28.213Z,18.54
2019-05-18T09:39:35.667Z,18.70
2019-05-18T09:44:38.905Z,18.68
2019-05-18T09:49:46.824Z,18.63
2019-05-18T09:54:50.355Z,18.25
2019-05-18T09:59:53.244Z,18.73
2019-05-18T10:04:56.297Z,19.03
2019-05-18T10:10:02.127Z,19.20
2019-05-18T10:15:05.229Z,19.22
2019-05-18T10:20:10.601Z,19.42
2019-05-18T10:25:13.879Z,19.49
2019-05-18T10:30:17.067Z,19.55
2019-05-18T10:35:20.017Z,19.71
2019-05-18T10:40:22.804Z,19.68
2019-05-18T10:45:25.327Z,19.89
2019-05-18T10:50:28.698Z,20.05
2019-05-18T10:55:31.369Z,20.33
2019-05-18T11:00:35.428Z,20.81
2019-05-18T11:05:38.636Z,21.10
2019-05-18T11:10:42.233Z,21.44
2019-05-18T11:15:44.756Z,21.39
2019-05-18T11:20:47.665Z,21.70
2019-05-18T11:25:51.234Z,21.63
2019-05-18T11:30:54.729Z,21.87
2019-05-18T11:35:57.898Z,22.25
2019-05-18T11:41:02.140Z,22.21
2019-05-18T11:46:05.320Z,22.57
2019-05-18T11:51:08.242Z,22.75
2019-05-18T11:56:11.557Z,22.69
2019-05-18T12:01:14.353Z,22.47
2019-05-18T12:06:17.891Z,23.00
2019-05-18T12:11:21.408Z,23.26
2019-05-18T12:16:24.618Z,23.54
2019-05-18T12:21:27.725Z,23.62
2019-05-18T12:26:30.711Z,23.63
2019-05-18T12:31:33.400Z,23.59
2019-05-18T12:36:36.631Z,23.87
2019-05-18T12:41:39.936Z,24.17
2019-05-18T12:46:42.930Z,24.25
2019-05-18T12:51:46.360Z,24.18
2019-05-18T12:56:49.580Z,24.35
2019-05-18T13:01:53.080Z,24.50
2019-05-18T13:06:56.388Z,24.65
2019-05-18T13:11:59.606Z,24.10
2019-05-18T13:17:02.901Z,24.81
2019-05-18T13:22:06.262Z,24.74
2019-05-18T13:27:08.762Z,25.14
2019-05-18T13:32:11.666Z,25.14
2019-05-18T13:37:14.650Z,25.48
2019-05-18T13:42:18.960Z,25.20
2019-05-18T13:47:22.456Z,25.27
2019-05-18T13:52:26.001Z,25.33
2019-05-18T13:57:29.303Z,25.19
2019-05-18T14:02:32.222Z,25.61
2019-05-18T14:07:35.397Z,25.61
2019-05-18T14:12:38.315Z,25.43
2019-05-18T14:17:41.492Z,25.80
2019-05-18T14:22:44.845Z,25.86
2019-05-18T14:27:47.753Z,25.77
2019-05-18T14:32:51.019Z,26.16
2019-05-18T14:37:54.620Z,25.96
2019-05-18T14:42:57.889Z,26.02
2019-05-18T14:48:01.390Z,26.31
2019-05-18T14:53:05.073Z,26.24
2019-05-18T14:58:08.661Z,25.44
2019-05-18T15:03:11.965Z,25.11
2019-05-18T15:08:15.160Z,25.05
2019-05-18T15:13:17.669Z,25.70
2019-05-18T15:18:22.302Z,25.51
2019-05-18T15:23:25.184Z,24.83
2019-05-18T15:28:28.824Z,24.98
2019-05-18T15:33:32.235Z,25.38
2019-05-18T15:38:36.888Z,25.38
2019-05-18T15:43:40.065Z,24.79
2019-05-18T15:48:43.351Z,25.33
2019-05-18T15:53:46.290Z,25.42
2019-05-18T15:58:49.850Z,25.02
2019-05-18T16:03:53.045Z,25.09
2019-05-18T16:08:56.156Z,25.00
2019-05-18T16:13:59.704Z,25.49
2019-05-18T16:19:02.882Z,24.28
2019-05-18T16:24:05.736Z,24.23
2019-05-18T16:29:09.175Z,24.35
2019-05-18T16:34:12.402Z,24.07
2019-05-18T16:39:15.976Z,23.50
2019-05-18T16:44:19.654Z,23.50
2019-05-18T16:49:24.258Z,23.95
2019-05-18T16:54:27.801Z,23.49
2019-05-18T16:59:31.377Z,23.44
2019-05-18T17:04:34.929Z,23.25
2019-05-18T17:09:37.424Z,22.89
2019-05-18T17:14:41.295Z,22.89
2019-05-18T17:19:44.384Z,23.06
2019-05-18T17:24:47.882Z,23.08
2019-05-18T17:29:51.243Z,22.67
2019-05-18T17:34:54.624Z,22.40
2019-05-18T17:39:58.135Z,22.14
2019-05-18T17:45:01.396Z,21.86
2019-05-18T17:50:05.141Z,21.43
2019-05-18T17:55:09.078Z,21.35
2019-05-18T18:00:12.598Z,21.31
2019-05-18T18:05:15.792Z,20.75
2019-05-18T18:10:19.233Z,20.81
2019-05-18T18:15:22.489Z,20.18
2019-05-18T18:20:25.937Z,19.89
2019-05-18T18:25:29.576Z,19.77
2019-05-18T18:30:33.245Z,19.55
2019-05-18T18:35:39.579Z,19.35
2019-05-18T18:40:42.402Z,19.00
2019-05-18T18:45:46.057Z,18.96
2019-05-18T18:50:49.676Z,18.72
2019-05-18T18:55:52.666Z,18.67
2019-05-18T19:00:56.302Z,18.25
2019-05-18T19:05:59.568Z,18.12
2019-05-18T19:11:02.460Z,17.90
2019-05-18T19:16:05.376Z,17.77
2019-05-18T19:21:08.725Z,17.56
2019-05-18T19:26:11.697Z,17.22
2019-05-18T19:31:15.766Z,17.02
2019-05-18T19:36:19.130Z,17.07
2019-05-18T19:41:23.282Z,16.47
2019-05-18T19:46:26.930Z,16.30
2019-05-18T19:51:29.981Z,16.37
2019-05-18T19:56:39.525Z,16.30
2019-05-18T20:01:39.468Z,16.23
2019-05-18T20:06:42.983Z,16.26
2019-05-18T20:11:46.304Z,16.00
2019-05-18T20:16:48.974Z,16.20
2019-05-18T20:21:52.156Z,16.12
2019-05-18T20:26:55.483Z,16.07
2019-05-18T20:31:59.456Z,16.11
2019-05-18T20:37:02.461Z,15.98
2019-05-18T20:42:05.576Z,16.03
2019-05-18T20:47:08.762Z,15.94
2019-05-18T20:52:11.913Z,15.54
2019-05-18T20:57:15.243Z,15.33
2019-05-18T21:02:18.500Z,15.41
2019-05-18T21:07:21.820Z,15.03
2019-05-18T21:12:24.824Z,15.11
2019-05-18T21:17:28.190Z,15.28
2019-05-18T21:22:31.748Z,15.28
2019-05-18T21:27:34.910Z,15.20
2019-05-18T21:32:37.762Z,15.02
2019-05-18T21:37:41.271Z,14.91
2019-05-18T21:42:44.858Z,14.97
2019-05-18T21:47:48.232Z,14.92
2019-05-18T21:52:53.211Z,14.95
2019-05-18T21:57:56.116Z,14.98
2019-05-18T22:03:00.411Z,14.95
2019-05-18T22:08:03.349Z,14.85
2019-05-18T22:13:06.683Z,14.72
2019-05-18T22:18:23.612Z,14.89
2019-05-18T22:23:15.503Z,14.90
2019-05-18T22:28:18.901Z,14.66
2019-05-18T22:33:21.885Z,14.62
2019-05-18T22:38:25.451Z,14.56
2019-05-18T22:43:28.953Z,14.40
2019-05-18T22:48:41.335Z,14.46
2019-05-18T22:53:37.279Z,14.24
2019-05-18T22:58:40.213Z,14.30
2019-05-18T23:03:43.405Z,14.18
2019-05-18T23:08:46.924Z,14.19
2019-05-18T23:13:50.158Z,14.27
2019-05-18T23:18:56.924Z,14.23
2019-05-18T23:23:58.124Z,14.30
2019-05-18T23:29:01.679Z,14.27
2019-05-18T23:34:04.527Z,14.17
2019-05-18T23:39:07.446Z,14.20
2019-05-18T23:44:10.676Z,14.08
2019-05-18T23:49:13.977Z,13.86
2019-05-18T23:54:17.168Z,13.76
2019-05-18T23:59:20.068Z,13.83
